sensor_id;sensor_type;location;lat;lon;timestamp;P1;durP1;ratioP1;P2;durP2;ratioP2
11699;SDS011;5906;51.660;6.674;2022-11-20T00:01:29;19.47;;;12.87;;
11699;SDS011;5906;51.660;6.674;2022-11-20T00:03:56;33.90;;;18.00;;
11699;SDS011;5906;51.660;6.674;2022-11-20T00:06:24;26.40;;;16.40;;
11699;SDS011;5906;51.660;6.674;2022-11-20T00:08:54;25.13;;;15.33;;
11699;SDS011;5906;51.660;6.674;2022-11-20T00:11:23;29.30;;;15.93;;
11699;SDS011;5906;51.660;6.674;2022-11-20T00:13:52;30.60;;;17.70;;
11699;SDS011;5906;51.660;6.674;2022-11-20T00:16:23;20.87;;;12.50;;
11699;SDS011;5906;51.660;6.674;2022-11-20T00:18:52;17.43;;;13.23;;
11699;SDS011;5906;51.660;6.674;2022-11-20T00:21:20;22.40;;;13.93;;
11699;SDS011;5906;51.660;6.674;2022-11-20T00:23:49;23.50;;;13.70;;
11699;SDS011;5906;51.660;6.674;2022-11-20T00:26:20;20.10;;;13.97;;
11699;SDS011;5906;51.660;6.674;2022-11-20T00:28:49;21.70;;;13.10;;
11699;SDS011;5906;51.660;6.674;2022-11-20T00:31:17;19.33;;;12.17;;
11699;SDS011;5906;51.660;6.674;2022-11-20T00:33:44;22.73;;;12.30;;
11699;SDS011;5906;51.660;6.674;2022-11-20T00:36:12;23.13;;;13.87;;
11699;SDS011;5906;51.660;6.674;2022-11-20T00:38:44;20.07;;;12.67;;
11699;SDS011;5906;51.660;6.674;2022-11-20T00:41:12;19.00;;;12.50;;
11699;SDS011;5906;51.660;6.674;2022-11-20T00:43:41;18.17;;;11.77;;
11699;SDS011;5906;51.660;6.674;2022-11-20T00:46:09;15.80;;;11.97;;
11699;SDS011;5906;51.660;6.674;2022-11-20T00:48:43;18.10;;;11.67;;
11699;SDS011;5906;51.660;6.674;2022-11-20T00:51:11;19.40;;;12.87;;
11699;SDS011;5906;51.660;6.674;2022-11-20T00:53:40;18.50;;;13.10;;
11699;SDS011;5906;51.660;6.674;2022-11-20T00:56:09;20.53;;;11.87;;
11699;SDS011;5906;51.660;6.674;2022-11-20T00:58:39;17.97;;;12.73;;
11699;SDS011;5906;51.660;6.674;2022-11-20T01:01:11;17.90;;;11.87;;
11699;SDS011;5906;51.660;6.674;2022-11-20T01:03:41;21.23;;;12.60;;
11699;SDS011;5906;51.660;6.674;2022-11-20T01:06:14;22.83;;;13.30;;
11699;SDS011;5906;51.660;6.674;2022-11-20T01:08:43;21.90;;;15.47;;
11699;SDS011;5906;51.660;6.674;2022-11-20T01:11:11;24.77;;;15.03;;
11699;SDS011;5906;51.660;6.674;2022-11-20T01:13:47;26.00;;;15.53;;
11699;SDS011;5906;51.660;6.674;2022-11-20T01:16:19;32.23;;;17.67;;
11699;SDS011;5906;51.660;6.674;2022-11-20T01:18:48;23.10;;;14.00;;
11699;SDS011;5906;51.660;6.674;2022-11-20T01:21:18;21.80;;;14.90;;
11699;SDS011;5906;51.660;6.674;2022-11-20T01:23:50;19.10;;;11.70;;
11699;SDS011;5906;51.660;6.674;2022-11-20T01:26:18;20.43;;;12.67;;
11699;SDS011;5906;51.660;6.674;2022-11-20T01:28:46;21.73;;;13.20;;
11699;SDS011;5906;51.660;6.674;2022-11-20T01:31:18;19.10;;;11.60;;
11699;SDS011;5906;51.660;6.674;2022-11-20T01:33:50;19.97;;;12.00;;
11699;SDS011;5906;51.660;6.674;2022-11-20T01:36:19;20.17;;;13.20;;
11699;SDS011;5906;51.660;6.674;2022-11-20T01:38:47;20.20;;;13.50;;
11699;SDS011;5906;51.660;6.674;2022-11-20T01:41:17;22.70;;;12.50;;
11699;SDS011;5906;51.660;6.674;2022-11-20T01:44:03;20.07;;;12.80;;
11699;SDS011;5906;51.660;6.674;2022-11-20T01:46:31;21.07;;;12.37;;
11699;SDS011;5906;51.660;6.674;2022-11-20T01:49:20;18.03;;;11.60;;
11699;SDS011;5906;51.660;6.674;2022-11-20T01:51:57;19.80;;;13.40;;
11699;SDS011;5906;51.660;6.674;2022-11-20T01:54:29;20.00;;;12.47;;
11699;SDS011;5906;51.660;6.674;2022-11-20T01:57:02;24.27;;;14.10;;
11699;SDS011;5906;51.660;6.674;2022-11-20T01:59:32;20.50;;;12.33;;
11699;SDS011;5906;51.660;6.674;2022-11-20T02:02:00;21.90;;;13.40;;
11699;SDS011;5906;51.660;6.674;2022-11-20T02:04:26;20.80;;;12.37;;
11699;SDS011;5906;51.660;6.674;2022-11-20T02:06:55;21.00;;;12.17;;
11699;SDS011;5906;51.660;6.674;2022-11-20T02:09:26;20.90;;;13.70;;
11699;SDS011;5906;51.660;6.674;2022-11-20T02:11:54;26.93;;;15.10;;
11699;SDS011;5906;51.660;6.674;2022-11-20T02:14:22;22.37;;;13.87;;
11699;SDS011;5906;51.660;6.674;2022-11-20T02:16:49;21.80;;;12.03;;
11699;SDS011;5906;51.660;6.674;2022-11-20T02:19:27;20.00;;;13.00;;
11699;SDS011;5906;51.660;6.674;2022-11-20T02:22:18;22.50;;;14.67;;
11699;SDS011;5906;51.660;6.674;2022-11-20T02:24:49;21.50;;;13.17;;
11699;SDS011;5906;51.660;6.674;2022-11-20T02:27:16;21.13;;;11.73;;
11699;SDS011;5906;51.660;6.674;2022-11-20T02:29:45;23.10;;;14.20;;
11699;SDS011;5906;51.660;6.674;2022-11-20T02:34:47;19.87;;;13.63;;
11699;SDS011;5906;51.660;6.674;2022-11-20T02:37:14;20.90;;;13.27;;
11699;SDS011;5906;51.660;6.674;2022-11-20T02:39:41;20.63;;;12.80;;
11699;SDS011;5906;51.660;6.674;2022-11-20T02:42:10;21.50;;;13.23;;
11699;SDS011;5906;51.660;6.674;2022-11-20T02:44:37;20.17;;;13.20;;
11699;SDS011;5906;51.660;6.674;2022-11-20T02:47:04;19.03;;;13.07;;
11699;SDS011;5906;51.660;6.674;2022-11-20T02:49:30;17.80;;;12.30;;
11699;SDS011;5906;51.660;6.674;2022-11-20T02:51:57;20.47;;;13.20;;
11699;SDS011;5906;51.660;6.674;2022-11-20T02:54:24;24.43;;;11.80;;
11699;SDS011;5906;51.660;6.674;2022-11-20T02:56:51;22.13;;;13.57;;
11699;SDS011;5906;51.660;6.674;2022-11-20T02:59:18;18.37;;;12.50;;
11699;SDS011;5906;51.660;6.674;2022-11-20T03:01:45;19.77;;;12.87;;
11699;SDS011;5906;51.660;6.674;2022-11-20T03:04:12;20.33;;;11.83;;
11699;SDS011;5906;51.660;6.674;2022-11-20T03:06:39;22.17;;;13.10;;
11699;SDS011;5906;51.660;6.674;2022-11-20T03:09:06;24.20;;;13.87;;
11699;SDS011;5906;51.660;6.674;2022-11-20T03:11:32;22.47;;;15.50;;
11699;SDS011;5906;51.660;6.674;2022-11-20T03:14:03;21.60;;;12.67;;
11699;SDS011;5906;51.660;6.674;2022-11-20T03:16:30;20.50;;;13.07;;
11699;SDS011;5906;51.660;6.674;2022-11-20T03:18:58;20.23;;;13.70;;
11699;SDS011;5906;51.660;6.674;2022-11-20T03:21:26;19.73;;;12.27;;
11699;SDS011;5906;51.660;6.674;2022-11-20T03:23:53;20.83;;;13.27;;
11699;SDS011;5906;51.660;6.674;2022-11-20T03:26:21;24.10;;;13.83;;
11699;SDS011;5906;51.660;6.674;2022-11-20T03:28:54;22.10;;;13.00;;
11699;SDS011;5906;51.660;6.674;2022-11-20T03:31:26;19.03;;;13.10;;
11699;SDS011;5906;51.660;6.674;2022-11-20T03:33:58;20.20;;;12.83;;
11699;SDS011;5906;51.660;6.674;2022-11-20T03:36:26;23.07;;;14.70;;
11699;SDS011;5906;51.660;6.674;2022-11-20T03:38:54;24.73;;;13.73;;
11699;SDS011;5906;51.660;6.674;2022-11-20T03:41:23;24.37;;;14.43;;
11699;SDS011;5906;51.660;6.674;2022-11-20T03:43:55;23.33;;;15.00;;
11699;SDS011;5906;51.660;6.674;2022-11-20T03:46:24;17.77;;;12.10;;
11699;SDS011;5906;51.660;6.674;2022-11-20T03:48:52;22.87;;;16.10;;
11699;SDS011;5906;51.660;6.674;2022-11-20T03:51:20;19.47;;;12.80;;
11699;SDS011;5906;51.660;6.674;2022-11-20T03:53:48;21.43;;;13.40;;
11699;SDS011;5906;51.660;6.674;2022-11-20T03:56:16;21.23;;;12.67;;
11699;SDS011;5906;51.660;6.674;2022-11-20T03:58:44;19.70;;;12.60;;
11699;SDS011;5906;51.660;6.674;2022-11-20T04:01:12;20.90;;;12.63;;
11699;SDS011;5906;51.660;6.674;2022-11-20T04:03:41;18.13;;;13.07;;
11699;SDS011;5906;51.660;6.674;2022-11-20T04:06:13;20.27;;;12.70;;
11699;SDS011;5906;51.660;6.674;2022-11-20T04:08:48;21.50;;;13.37;;
11699;SDS011;5906;51.660;6.674;2022-11-20T04:13:51;23.40;;;13.47;;
11699;SDS011;5906;51.660;6.674;2022-11-20T04:16:20;21.67;;;12.77;;
11699;SDS011;5906;51.660;6.674;2022-11-20T04:18:53;21.37;;;13.73;;
11699;SDS011;5906;51.660;6.674;2022-11-20T04:21:21;21.00;;;14.17;;
11699;SDS011;5906;51.660;6.674;2022-11-20T04:23:48;19.43;;;11.70;;
11699;SDS011;5906;51.660;6.674;2022-11-20T04:26:16;23.43;;;16.87;;
11699;SDS011;5906;51.660;6.674;2022-11-20T04:28:43;23.10;;;12.23;;
11699;SDS011;5906;51.660;6.674;2022-11-20T04:31:19;21.87;;;13.83;;
11699;SDS011;5906;51.660;6.674;2022-11-20T04:33:48;24.00;;;11.90;;
11699;SDS011;5906;51.660;6.674;2022-11-20T04:36:16;22.77;;;13.33;;
11699;SDS011;5906;51.660;6.674;2022-11-20T04:38:54;28.40;;;14.90;;
11699;SDS011;5906;51.660;6.674;2022-11-20T04:41:31;23.40;;;16.00;;
11699;SDS011;5906;51.660;6.674;2022-11-20T04:44:00;27.40;;;14.60;;
11699;SDS011;5906;51.660;6.674;2022-11-20T04:46:32;22.93;;;14.70;;
11699;SDS011;5906;51.660;6.674;2022-11-20T04:49:00;27.27;;;14.63;;
11699;SDS011;5906;51.660;6.674;2022-11-20T04:51:27;20.23;;;13.97;;
11699;SDS011;5906;51.660;6.674;2022-11-20T04:53:54;25.17;;;15.70;;
11699;SDS011;5906;51.660;6.674;2022-11-20T04:56:20;23.57;;;14.60;;
11699;SDS011;5906;51.660;6.674;2022-11-20T04:58:48;24.03;;;15.10;;
11699;SDS011;5906;51.660;6.674;2022-11-20T05:01:16;23.67;;;16.13;;
11699;SDS011;5906;51.660;6.674;2022-11-20T05:03:47;20.47;;;11.87;;
11699;SDS011;5906;51.660;6.674;2022-11-20T05:06:15;22.17;;;13.67;;
11699;SDS011;5906;51.660;6.674;2022-11-20T05:08:43;23.07;;;15.50;;
11699;SDS011;5906;51.660;6.674;2022-11-20T05:11:11;20.57;;;14.10;;
11699;SDS011;5906;51.660;6.674;2022-11-20T05:13:39;23.43;;;14.53;;
11699;SDS011;5906;51.660;6.674;2022-11-20T05:16:08;24.03;;;14.60;;
11699;SDS011;5906;51.660;6.674;2022-11-20T05:18:36;23.27;;;15.13;;
11699;SDS011;5906;51.660;6.674;2022-11-20T05:21:03;22.60;;;14.73;;
11699;SDS011;5906;51.660;6.674;2022-11-20T05:23:31;23.30;;;14.77;;
11699;SDS011;5906;51.660;6.674;2022-11-20T05:25:58;23.87;;;14.07;;
11699;SDS011;5906;51.660;6.674;2022-11-20T05:28:26;26.10;;;14.80;;
11699;SDS011;5906;51.660;6.674;2022-11-20T05:30:54;25.47;;;17.00;;
11699;SDS011;5906;51.660;6.674;2022-11-20T05:33:21;28.30;;;15.93;;
11699;SDS011;5906;51.660;6.674;2022-11-20T05:35:48;19.67;;;14.27;;
11699;SDS011;5906;51.660;6.674;2022-11-20T05:38:15;22.83;;;15.60;;
11699;SDS011;5906;51.660;6.674;2022-11-20T05:40:42;30.20;;;16.90;;
11699;SDS011;5906;51.660;6.674;2022-11-20T05:43:09;26.60;;;15.10;;
11699;SDS011;5906;51.660;6.674;2022-11-20T05:45:35;20.97;;;14.13;;
11699;SDS011;5906;51.660;6.674;2022-11-20T05:48:02;26.00;;;15.60;;
11699;SDS011;5906;51.660;6.674;2022-11-20T05:50:29;23.67;;;15.33;;
11699;SDS011;5906;51.660;6.674;2022-11-20T05:52:59;25.60;;;14.30;;
11699;SDS011;5906;51.660;6.674;2022-11-20T05:55:26;21.63;;;14.30;;
11699;SDS011;5906;51.660;6.674;2022-11-20T05:57:54;20.77;;;11.90;;
11699;SDS011;5906;51.660;6.674;2022-11-20T06:00:21;26.57;;;14.10;;
11699;SDS011;5906;51.660;6.674;2022-11-20T06:02:48;22.17;;;14.93;;
11699;SDS011;5906;51.660;6.674;2022-11-20T06:05:15;21.77;;;12.53;;
11699;SDS011;5906;51.660;6.674;2022-11-20T06:07:42;21.03;;;14.67;;
11699;SDS011;5906;51.660;6.674;2022-11-20T06:10:09;24.73;;;12.70;;
11699;SDS011;5906;51.660;6.674;2022-11-20T06:12:36;23.20;;;13.23;;
11699;SDS011;5906;51.660;6.674;2022-11-20T06:15:03;23.27;;;15.33;;
11699;SDS011;5906;51.660;6.674;2022-11-20T06:17:31;22.53;;;14.47;;
11699;SDS011;5906;51.660;6.674;2022-11-20T06:19:58;20.53;;;13.33;;
11699;SDS011;5906;51.660;6.674;2022-11-20T06:22:25;21.03;;;13.60;;
11699;SDS011;5906;51.660;6.674;2022-11-20T06:24:51;18.47;;;13.50;;
11699;SDS011;5906;51.660;6.674;2022-11-20T06:27:18;21.00;;;12.97;;
11699;SDS011;5906;51.660;6.674;2022-11-20T06:29:45;24.60;;;15.47;;
11699;SDS011;5906;51.660;6.674;2022-11-20T06:32:12;19.10;;;14.13;;
11699;SDS011;5906;51.660;6.674;2022-11-20T06:34:38;23.93;;;16.87;;
11699;SDS011;5906;51.660;6.674;2022-11-20T06:37:05;22.67;;;15.17;;
11699;SDS011;5906;51.660;6.674;2022-11-20T06:39:32;24.93;;;15.70;;
11699;SDS011;5906;51.660;6.674;2022-11-20T06:41:58;20.03;;;14.53;;
11699;SDS011;5906;51.660;6.674;2022-11-20T06:44:25;22.10;;;15.60;;
11699;SDS011;5906;51.660;6.674;2022-11-20T06:46:52;27.77;;;15.43;;
11699;SDS011;5906;51.660;6.674;2022-11-20T06:49:19;21.90;;;13.43;;
11699;SDS011;5906;51.660;6.674;2022-11-20T06:51:46;20.00;;;13.20;;
11699;SDS011;5906;51.660;6.674;2022-11-20T06:54:13;19.70;;;13.43;;
11699;SDS011;5906;51.660;6.674;2022-11-20T06:56:39;23.47;;;12.97;;
11699;SDS011;5906;51.660;6.674;2022-11-20T06:59:06;21.73;;;13.57;;
11699;SDS011;5906;51.660;6.674;2022-11-20T07:01:33;20.60;;;13.20;;
11699;SDS011;5906;51.660;6.674;2022-11-20T07:04:01;25.33;;;15.10;;
11699;SDS011;5906;51.660;6.674;2022-11-20T07:06:29;17.33;;;12.33;;
11699;SDS011;5906;51.660;6.674;2022-11-20T07:08:56;23.27;;;13.80;;
11699;SDS011;5906;51.660;6.674;2022-11-20T07:11:23;20.30;;;15.77;;
11699;SDS011;5906;51.660;6.674;2022-11-20T07:13:50;23.63;;;14.40;;
11699;SDS011;5906;51.660;6.674;2022-11-20T07:16:17;21.43;;;14.13;;
11699;SDS011;5906;51.660;6.674;2022-11-20T07:18:44;22.77;;;13.43;;
11699;SDS011;5906;51.660;6.674;2022-11-20T07:21:16;22.73;;;15.23;;
11699;SDS011;5906;51.660;6.674;2022-11-20T07:23:43;18.90;;;12.83;;
11699;SDS011;5906;51.660;6.674;2022-11-20T07:26:10;23.47;;;15.13;;
11699;SDS011;5906;51.660;6.674;2022-11-20T07:28:37;26.70;;;15.37;;
11699;SDS011;5906;51.660;6.674;2022-11-20T07:31:04;19.50;;;13.23;;
11699;SDS011;5906;51.660;6.674;2022-11-20T07:33:32;21.50;;;13.87;;
11699;SDS011;5906;51.660;6.674;2022-11-20T07:36:00;27.07;;;14.73;;
11699;SDS011;5906;51.660;6.674;2022-11-20T07:38:27;22.23;;;15.90;;
11699;SDS011;5906;51.660;6.674;2022-11-20T07:40:55;23.20;;;14.80;;
11699;SDS011;5906;51.660;6.674;2022-11-20T07:43:23;23.83;;;14.83;;
11699;SDS011;5906;51.660;6.674;2022-11-20T07:45:51;21.60;;;12.77;;
11699;SDS011;5906;51.660;6.674;2022-11-20T07:48:18;21.17;;;14.60;;
11699;SDS011;5906;51.660;6.674;2022-11-20T07:50:44;33.03;;;14.90;;
11699;SDS011;5906;51.660;6.674;2022-11-20T07:53:11;20.60;;;13.07;;
11699;SDS011;5906;51.660;6.674;2022-11-20T07:55:39;29.63;;;14.60;;
11699;SDS011;5906;51.660;6.674;2022-11-20T07:58:06;28.40;;;16.10;;
11699;SDS011;5906;51.660;6.674;2022-11-20T08:00:33;23.97;;;14.67;;
11699;SDS011;5906;51.660;6.674;2022-11-20T08:03:02;22.50;;;14.40;;
11699;SDS011;5906;51.660;6.674;2022-11-20T08:05:32;25.27;;;15.43;;
11699;SDS011;5906;51.660;6.674;2022-11-20T08:07:59;22.10;;;13.83;;
11699;SDS011;5906;51.660;6.674;2022-11-20T08:10:26;20.40;;;14.73;;
11699;SDS011;5906;51.660;6.674;2022-11-20T08:12:53;21.60;;;13.70;;
11699;SDS011;5906;51.660;6.674;2022-11-20T08:15:39;26.90;;;16.93;;
11699;SDS011;5906;51.660;6.674;2022-11-20T08:18:07;21.97;;;14.80;;
11699;SDS011;5906;51.660;6.674;2022-11-20T08:21:04;25.70;;;15.30;;
11699;SDS011;5906;51.660;6.674;2022-11-20T08:23:31;24.37;;;15.70;;
11699;SDS011;5906;51.660;6.674;2022-11-20T08:25:58;23.83;;;15.10;;
11699;SDS011;5906;51.660;6.674;2022-11-20T08:28:45;27.07;;;16.83;;
11699;SDS011;5906;51.660;6.674;2022-11-20T08:31:12;25.23;;;15.70;;
11699;SDS011;5906;51.660;6.674;2022-11-20T08:35:09;30.60;;;17.50;;
11699;SDS011;5906;51.660;6.674;2022-11-20T08:37:36;30.20;;;15.83;;
11699;SDS011;5906;51.660;6.674;2022-11-20T08:40:09;22.77;;;14.17;;
11699;SDS011;5906;51.660;6.674;2022-11-20T08:42:49;30.27;;;16.93;;
11699;SDS011;5906;51.660;6.674;2022-11-20T08:48:46;26.90;;;16.60;;
11699;SDS011;5906;51.660;6.674;2022-11-20T08:51:13;26.73;;;16.30;;
11699;SDS011;5906;51.660;6.674;2022-11-20T08:53:41;32.67;;;19.47;;
11699;SDS011;5906;51.660;6.674;2022-11-20T08:56:08;27.43;;;17.70;;
11699;SDS011;5906;51.660;6.674;2022-11-20T08:58:36;26.37;;;17.53;;
11699;SDS011;5906;51.660;6.674;2022-11-20T09:01:23;30.17;;;19.37;;
11699;SDS011;5906;51.660;6.674;2022-11-20T09:03:50;29.00;;;17.67;;
11699;SDS011;5906;51.660;6.674;2022-11-20T09:06:17;23.87;;;17.73;;
11699;SDS011;5906;51.660;6.674;2022-11-20T09:08:44;28.33;;;17.93;;
11699;SDS011;5906;51.660;6.674;2022-11-20T09:11:11;27.27;;;17.80;;
11699;SDS011;5906;51.660;6.674;2022-11-20T09:13:37;30.83;;;16.90;;
11699;SDS011;5906;51.660;6.674;2022-11-20T09:16:05;27.30;;;18.80;;
11699;SDS011;5906;51.660;6.674;2022-11-20T09:18:34;29.10;;;17.73;;
11699;SDS011;5906;51.660;6.674;2022-11-20T09:21:10;25.80;;;16.80;;
11699;SDS011;5906;51.660;6.674;2022-11-20T09:23:38;27.63;;;18.30;;
11699;SDS011;5906;51.660;6.674;2022-11-20T09:26:06;27.13;;;16.87;;
11699;SDS011;5906;51.660;6.674;2022-11-20T09:28:41;29.17;;;17.07;;
11699;SDS011;5906;51.660;6.674;2022-11-20T09:31:11;26.10;;;16.93;;
11699;SDS011;5906;51.660;6.674;2022-11-20T09:33:49;27.17;;;18.07;;
11699;SDS011;5906;51.660;6.674;2022-11-20T09:36:16;32.67;;;19.50;;
11699;SDS011;5906;51.660;6.674;2022-11-20T09:38:45;27.20;;;18.47;;
11699;SDS011;5906;51.660;6.674;2022-11-20T09:46:48;32.83;;;18.73;;
11699;SDS011;5906;51.660;6.674;2022-11-20T09:55:10;37.93;;;21.87;;
11699;SDS011;5906;51.660;6.674;2022-11-20T09:57:40;40.00;;;22.20;;
11699;SDS011;5906;51.660;6.674;2022-11-20T10:00:11;44.07;;;25.23;;
11699;SDS011;5906;51.660;6.674;2022-11-20T10:02:42;44.90;;;24.07;;
11699;SDS011;5906;51.660;6.674;2022-11-20T10:05:19;42.57;;;23.63;;
11699;SDS011;5906;51.660;6.674;2022-11-20T10:08:09;41.00;;;24.57;;
11699;SDS011;5906;51.660;6.674;2022-11-20T10:11:01;39.97;;;22.00;;
11699;SDS011;5906;51.660;6.674;2022-11-20T10:13:35;40.03;;;23.63;;
11699;SDS011;5906;51.660;6.674;2022-11-20T10:16:12;38.30;;;22.93;;
11699;SDS011;5906;51.660;6.674;2022-11-20T10:19:06;37.07;;;23.43;;
11699;SDS011;5906;51.660;6.674;2022-11-20T10:22:34;40.63;;;23.00;;
11699;SDS011;5906;51.660;6.674;2022-11-20T10:25:13;34.67;;;21.90;;
11699;SDS011;5906;51.660;6.674;2022-11-20T10:30:35;35.37;;;23.40;;
11699;SDS011;5906;51.660;6.674;2022-11-20T10:38:43;38.13;;;22.17;;
11699;SDS011;5906;51.660;6.674;2022-11-20T10:41:40;30.80;;;20.73;;
11699;SDS011;5906;51.660;6.674;2022-11-20T10:44:12;37.50;;;22.73;;
11699;SDS011;5906;51.660;6.674;2022-11-20T10:47:03;32.77;;;21.97;;
11699;SDS011;5906;51.660;6.674;2022-11-20T10:49:32;35.27;;;21.47;;
11699;SDS011;5906;51.660;6.674;2022-11-20T10:52:04;30.97;;;21.63;;
11699;SDS011;5906;51.660;6.674;2022-11-20T10:54:58;36.00;;;21.60;;
11699;SDS011;5906;51.660;6.674;2022-11-20T10:57:47;33.43;;;20.47;;
11699;SDS011;5906;51.660;6.674;2022-11-20T11:00:23;31.87;;;20.53;;
11699;SDS011;5906;51.660;6.674;2022-11-20T11:02:51;30.17;;;18.83;;
11699;SDS011;5906;51.660;6.674;2022-11-20T11:08:01;31.70;;;18.40;;
11699;SDS011;5906;51.660;6.674;2022-11-20T11:10:39;30.17;;;19.10;;
11699;SDS011;5906;51.660;6.674;2022-11-20T11:13:27;28.70;;;18.60;;
11699;SDS011;5906;51.660;6.674;2022-11-20T11:15:55;29.03;;;18.17;;
11699;SDS011;5906;51.660;6.674;2022-11-20T11:18:27;26.33;;;17.60;;
11699;SDS011;5906;51.660;6.674;2022-11-20T11:20:59;31.73;;;18.57;;
11699;SDS011;5906;51.660;6.674;2022-11-20T11:23:34;30.23;;;17.80;;
11699;SDS011;5906;51.660;6.674;2022-11-20T11:26:04;29.73;;;18.47;;
11699;SDS011;5906;51.660;6.674;2022-11-20T11:28:33;26.30;;;17.10;;
11699;SDS011;5906;51.660;6.674;2022-11-20T11:31:00;29.47;;;17.67;;
11699;SDS011;5906;51.660;6.674;2022-11-20T11:33:28;27.87;;;17.43;;
11699;SDS011;5906;51.660;6.674;2022-11-20T11:36:15;29.83;;;19.23;;
11699;SDS011;5906;51.660;6.674;2022-11-20T11:38:48;30.60;;;17.87;;
11699;SDS011;5906;51.660;6.674;2022-11-20T11:41:20;26.90;;;16.70;;
11699;SDS011;5906;51.660;6.674;2022-11-20T11:43:53;28.57;;;18.07;;
11699;SDS011;5906;51.660;6.674;2022-11-20T11:46:55;27.00;;;16.33;;
11699;SDS011;5906;51.660;6.674;2022-11-20T11:49:22;29.50;;;18.80;;
11699;SDS011;5906;51.660;6.674;2022-11-20T11:52:02;31.93;;;18.63;;
11699;SDS011;5906;51.660;6.674;2022-11-20T11:54:53;27.47;;;16.63;;
11699;SDS011;5906;51.660;6.674;2022-11-20T11:57:39;25.97;;;16.40;;
11699;SDS011;5906;51.660;6.674;2022-11-20T12:00:11;27.27;;;17.40;;
11699;SDS011;5906;51.660;6.674;2022-11-20T12:05:18;26.13;;;17.20;;
11699;SDS011;5906;51.660;6.674;2022-11-20T12:10:56;25.90;;;16.63;;
11699;SDS011;5906;51.660;6.674;2022-11-20T12:13:39;33.00;;;19.43;;
11699;SDS011;5906;51.660;6.674;2022-11-20T12:16:13;31.57;;;18.40;;
11699;SDS011;5906;51.660;6.674;2022-11-20T12:18:43;31.80;;;19.33;;
11699;SDS011;5906;51.660;6.674;2022-11-20T12:35:00;32.77;;;18.93;;
11699;SDS011;5906;51.660;6.674;2022-11-20T12:40:28;38.23;;;19.00;;
11699;SDS011;5906;51.660;6.674;2022-11-20T12:43:06;33.53;;;18.40;;
11699;SDS011;5906;51.660;6.674;2022-11-20T12:46:24;34.20;;;20.20;;
11699;SDS011;5906;51.660;6.674;2022-11-20T12:51:39;26.27;;;17.33;;
11699;SDS011;5906;51.660;6.674;2022-11-20T12:59:50;29.53;;;17.93;;
11699;SDS011;5906;51.660;6.674;2022-11-20T13:02:27;32.93;;;18.80;;
11699;SDS011;5906;51.660;6.674;2022-11-20T13:07:29;32.47;;;18.13;;
11699;SDS011;5906;51.660;6.674;2022-11-20T13:09:57;32.80;;;19.20;;
11699;SDS011;5906;51.660;6.674;2022-11-20T13:20:20;31.70;;;20.87;;
11699;SDS011;5906;51.660;6.674;2022-11-20T13:22:48;35.43;;;19.70;;
11699;SDS011;5906;51.660;6.674;2022-11-20T13:27:50;35.20;;;21.30;;
11699;SDS011;5906;51.660;6.674;2022-11-20T13:30:28;31.27;;;20.00;;
11699;SDS011;5906;51.660;6.674;2022-11-20T13:35:24;30.57;;;20.73;;
11699;SDS011;5906;51.660;6.674;2022-11-20T13:38:11;34.10;;;20.77;;
11699;SDS011;5906;51.660;6.674;2022-11-20T13:40:53;36.03;;;21.87;;
11699;SDS011;5906;51.660;6.674;2022-11-20T13:43:40;36.77;;;21.63;;
11699;SDS011;5906;51.660;6.674;2022-11-20T13:46:08;41.67;;;22.63;;
11699;SDS011;5906;51.660;6.674;2022-11-20T13:48:39;36.70;;;23.10;;
11699;SDS011;5906;51.660;6.674;2022-11-20T13:56:51;35.17;;;22.27;;
11699;SDS011;5906;51.660;6.674;2022-11-20T13:59:29;41.13;;;24.73;;
11699;SDS011;5906;51.660;6.674;2022-11-20T14:02:18;37.40;;;23.17;;
11699;SDS011;5906;51.660;6.674;2022-11-20T14:04:47;32.33;;;20.90;;
11699;SDS011;5906;51.660;6.674;2022-11-20T14:07:16;33.37;;;22.20;;
11699;SDS011;5906;51.660;6.674;2022-11-20T14:09:53;38.60;;;22.87;;
11699;SDS011;5906;51.660;6.674;2022-11-20T14:12:22;32.57;;;21.30;;
11699;SDS011;5906;51.660;6.674;2022-11-20T14:14:54;33.03;;;20.40;;
11699;SDS011;5906;51.660;6.674;2022-11-20T14:17:29;33.67;;;20.87;;
11699;SDS011;5906;51.660;6.674;2022-11-20T14:20:12;28.83;;;19.13;;
11699;SDS011;5906;51.660;6.674;2022-11-20T14:22:47;39.73;;;24.23;;
11699;SDS011;5906;51.660;6.674;2022-11-20T14:27:43;45.97;;;22.10;;
11699;SDS011;5906;51.660;6.674;2022-11-20T14:30:37;34.53;;;20.77;;
11699;SDS011;5906;51.660;6.674;2022-11-20T14:33:13;35.77;;;21.30;;
11699;SDS011;5906;51.660;6.674;2022-11-20T14:35:44;35.50;;;21.67;;
11699;SDS011;5906;51.660;6.674;2022-11-20T14:38:16;39.63;;;24.40;;
11699;SDS011;5906;51.660;6.674;2022-11-20T14:40:46;40.17;;;21.90;;
11699;SDS011;5906;51.660;6.674;2022-11-20T14:43:25;39.67;;;21.37;;
11699;SDS011;5906;51.660;6.674;2022-11-20T14:46:01;42.93;;;22.93;;
11699;SDS011;5906;51.660;6.674;2022-11-20T14:48:40;36.70;;;23.00;;
11699;SDS011;5906;51.660;6.674;2022-11-20T14:51:12;39.60;;;23.83;;
11699;SDS011;5906;51.660;6.674;2022-11-20T14:54:17;43.17;;;24.63;;
11699;SDS011;5906;51.660;6.674;2022-11-20T14:56:57;43.43;;;25.53;;
11699;SDS011;5906;51.660;6.674;2022-11-20T14:59:26;36.57;;;22.20;;
11699;SDS011;5906;51.660;6.674;2022-11-20T15:01:59;39.70;;;20.97;;
11699;SDS011;5906;51.660;6.674;2022-11-20T15:04:31;42.77;;;23.93;;
11699;SDS011;5906;51.660;6.674;2022-11-20T15:06:58;45.23;;;26.87;;
11699;SDS011;5906;51.660;6.674;2022-11-20T15:09:26;51.83;;;33.50;;
11699;SDS011;5906;51.660;6.674;2022-11-20T15:11:54;41.07;;;24.00;;
11699;SDS011;5906;51.660;6.674;2022-11-20T15:14:23;40.97;;;25.27;;
11699;SDS011;5906;51.660;6.674;2022-11-20T15:16:51;42.13;;;24.53;;
11699;SDS011;5906;51.660;6.674;2022-11-20T15:19:22;58.50;;;30.20;;
11699;SDS011;5906;51.660;6.674;2022-11-20T15:21:50;48.30;;;28.60;;
11699;SDS011;5906;51.660;6.674;2022-11-20T15:24:18;44.13;;;26.30;;
11699;SDS011;5906;51.660;6.674;2022-11-20T15:26:45;41.83;;;23.40;;
11699;SDS011;5906;51.660;6.674;2022-11-20T15:29:12;41.50;;;25.63;;
11699;SDS011;5906;51.660;6.674;2022-11-20T15:31:44;42.40;;;25.00;;
11699;SDS011;5906;51.660;6.674;2022-11-20T15:34:11;39.60;;;22.60;;
11699;SDS011;5906;51.660;6.674;2022-11-20T15:36:39;43.40;;;24.40;;
11699;SDS011;5906;51.660;6.674;2022-11-20T15:39:07;39.03;;;22.77;;
11699;SDS011;5906;51.660;6.674;2022-11-20T15:41:35;49.07;;;24.33;;
11699;SDS011;5906;51.660;6.674;2022-11-20T15:44:03;43.73;;;26.07;;
11699;SDS011;5906;51.660;6.674;2022-11-20T15:46:31;46.27;;;24.73;;
11699;SDS011;5906;51.660;6.674;2022-11-20T15:49:04;37.03;;;22.53;;
11699;SDS011;5906;51.660;6.674;2022-11-20T15:51:33;38.60;;;22.60;;
11699;SDS011;5906;51.660;6.674;2022-11-20T15:54:08;40.27;;;21.53;;
11699;SDS011;5906;51.660;6.674;2022-11-20T15:56:36;45.77;;;24.03;;
11699;SDS011;5906;51.660;6.674;2022-11-20T15:59:03;44.50;;;21.00;;
11699;SDS011;5906;51.660;6.674;2022-11-20T16:01:30;39.10;;;22.77;;
11699;SDS011;5906;51.660;6.674;2022-11-20T16:03:57;41.60;;;22.67;;
11699;SDS011;5906;51.660;6.674;2022-11-20T16:06:25;37.20;;;21.70;;
11699;SDS011;5906;51.660;6.674;2022-11-20T16:08:51;33.00;;;18.83;;
11699;SDS011;5906;51.660;6.674;2022-11-20T16:11:18;36.17;;;22.23;;
11699;SDS011;5906;51.660;6.674;2022-11-20T16:13:45;38.80;;;20.53;;
11699;SDS011;5906;51.660;6.674;2022-11-20T16:16:32;39.47;;;21.90;;
11699;SDS011;5906;51.660;6.674;2022-11-20T16:19:00;39.73;;;20.37;;
11699;SDS011;5906;51.660;6.674;2022-11-20T16:21:27;37.23;;;20.33;;
11699;SDS011;5906;51.660;6.674;2022-11-20T16:23:58;37.17;;;21.27;;